createdAt,value
2023-05-02T00:04:18.687Z,95795.91
2023-05-02T00:09:20.962Z,95791.63
2023-05-02T00:14:22.529Z,95794.03
2023-05-02T00:19:24.193Z,95792.88
2023-05-02T00:24:26.902Z,95786.66
2023-05-02T00:29:28.456Z,95794.91
2023-05-02T00:34:31.263Z,95791.81
2023-05-02T00:39:34.712Z,95788.69
2023-05-02T00:44:36.406Z,95787.97
2023-05-02T00:49:38.051Z,95789.53
2023-05-02T00:54:39.688Z,95798.53
2023-05-02T00:59:41.301Z,95795.84
2023-05-02T01:05:10.558Z,95797.44
2023-05-02T01:10:18.910Z,95802.13
2023-05-02T01:15:22.667Z,95815.06
2023-05-02T01:20:27.914Z,95810.00
2023-05-02T01:25:37.886Z,95811.22
2023-05-02T01:30:42.807Z,95813.97
2023-05-02T01:35:49.596Z,95815.19
2023-05-02T01:40:51.869Z,95817.53
2023-05-02T01:45:55.430Z,95822.22
2023-05-02T01:50:58.754Z,95821.06
2023-05-02T01:56:00.755Z,95831.66
2023-05-02T02:01:04.387Z,95834.41
2023-05-02T02:06:08.418Z,95837.53
2023-05-02T02:11:13.246Z,95838.72
2023-05-02T02:16:21.633Z,95853.22
2023-05-02T02:21:23.815Z,95843.06
2023-05-02T02:26:25.648Z,95836.78
2023-05-02T02:31:32.212Z,95840.72
2023-05-02T02:36:46.985Z,95846.56
2023-05-02T02:42:16.467Z,95850.50
2023-05-02T02:47:23.907Z,95849.72
2023-05-02T02:52:31.165Z,95851.69
2023-05-02T02:58:00.449Z,95850.13
2023-05-02T03:03:02.184Z,95858.00
2023-05-02T03:08:03.988Z,95863.84
2023-05-02T03:13:05.708Z,95867.75
2023-05-02T03:18:08.256Z,95861.91
2023-05-02T03:23:10.471Z,95862.72
2023-05-02T03:28:13.087Z,95867.81
2023-05-02T03:33:17.417Z,95861.94
2023-05-02T03:38:21.792Z,95870.94
2023-05-02T03:43:24.864Z,95867.81
2023-05-02T03:48:27.862Z,95871.34
2023-05-02T03:53:31.602Z,95881.13
2023-05-02T03:58:36.182Z,95887.38
2023-05-02T04:03:38.695Z,95888.94
2023-05-02T04:08:41.379Z,95901.44
2023-05-02T04:13:43.016Z,95895.94
2023-05-02T04:18:45.275Z,95904.94
2023-05-02T04:23:47.846Z,95902.22
2023-05-02T04:28:49.870Z,95915.91
2023-05-02T04:33:52.120Z,95911.22
2023-05-02T04:38:58.005Z,95928.00
2023-05-02T04:44:00.449Z,95926.84
2023-05-02T04:49:02.144Z,95932.69
2023-05-02T04:54:04.966Z,95934.25
2023-05-02T04:59:06.709Z,95956.13
2023-05-02T05:04:09.549Z,95966.69
2023-05-02T05:09:12.444Z,95966.69
2023-05-02T05:14:14.326Z,95974.13
2023-05-02T05:19:18.822Z,95969.44
2023-05-02T05:24:20.582Z,95977.66
2023-05-02T05:29:24.660Z,95985.84
2023-05-02T05:34:27.112Z,95983.09
2023-05-02T05:39:33.080Z,95988.97
2023-05-02T05:44:37.108Z,95988.59
2023-05-02T05:49:40.299Z,95992.88
2023-05-02T05:54:49.242Z,96005.34
2023-05-02T05:59:56.832Z,96000.66
2023-05-02T06:04:59.324Z,96013.94
2023-05-02T06:10:01.504Z,96012.00
2023-05-02T06:15:08.331Z,96017.84
2023-05-02T06:20:10.679Z,96021.75
2023-05-02T06:25:12.356Z,96029.53
2023-05-02T06:30:15.087Z,96024.47
2023-05-02T06:35:17.074Z,96031.13
2023-05-02T06:40:19.427Z,96033.06
2023-05-02T06:45:23.343Z,96035.41
2023-05-02T06:50:27.705Z,96043.63
2023-05-02T06:55:33.125Z,96053.00
2023-05-02T07:00:46.279Z,96055.00
2023-05-02T07:05:55.271Z,96059.31
2023-05-02T07:11:02.150Z,96071.44
2023-05-02T07:16:13.307Z,96073.41
2023-05-02T07:21:21.444Z,96072.25
2023-05-02T07:26:29.652Z,96079.66
2023-05-02T07:31:37.989Z,96082.44
2023-05-02T07:36:47.097Z,96084.38
2023-05-02T07:41:58.566Z,96087.09
2023-05-02T07:47:06.168Z,96089.00
2023-05-02T07:52:17.607Z,96094.06
2023-05-02T07:57:26.060Z,96097.56
2023-05-02T08:02:39.657Z,96102.59
2023-05-02T08:07:46.743Z,96117.03
2023-05-02T08:12:57.006Z,96125.25
2023-05-02T08:18:03.872Z,96118.56
2023-05-02T08:23:11.212Z,96127.16
2023-05-02T08:28:21.272Z,96140.47
2023-05-02T08:33:27.918Z,96145.16
2023-05-02T08:38:38.347Z,96145.13
2023-05-02T08:43:44.836Z,96148.56
2023-05-02T08:48:52.549Z,96144.22
2023-05-02T08:53:56.202Z,96157.13
2023-05-02T08:58:58.284Z,96161.84
2023-05-02T09:04:00.227Z,96169.69
2023-05-02T09:09:01.906Z,96181.47
2023-05-02T09:14:14.410Z,96187.78
2023-05-02T09:19:26.061Z,96185.41
2023-05-02T09:24:29.052Z,96199.13
2023-05-02T09:29:37.722Z,96195.97
2023-05-02T09:34:40.271Z,96210.50
2023-05-02T09:40:04.136Z,96204.56
2023-05-02T09:45:06.811Z,96207.28
2023-05-02T09:50:10.492Z,96209.97
2023-05-02T09:55:22.703Z,96208.75
2023-05-02T10:00:45.070Z,96221.25
2023-05-02T10:05:48.297Z,96223.94
2023-05-02T10:10:53.879Z,96220.75
2023-05-02T10:16:05.308Z,96216.72
2023-05-02T10:21:12.201Z,96217.84
2023-05-02T10:26:19.228Z,96224.84
2023-05-02T10:31:22.467Z,96218.09
2023-05-02T10:36:24.117Z,96220.78
2023-05-02T10:41:29.641Z,96210.88
2023-05-02T10:46:34.235Z,96213.97
2023-05-02T10:51:44.775Z,96203.59
2023-05-02T10:56:59.755Z,96207.88
2023-05-02T11:02:06.807Z,96201.81
2023-05-02T11:07:13.759Z,96204.78
2023-05-02T11:12:49.365Z,96199.88
2023-05-02T11:18:03.054Z,96202.81
2023-05-02T11:23:15.514Z,96196.97
2023-05-02T11:28:36.708Z,96195.81
2023-05-02T11:33:38.405Z,96187.25
2023-05-02T11:38:41.331Z,96188.88
2023-05-02T11:43:48.558Z,96178.25
2023-05-02T11:48:51.665Z,96177.78
2023-05-02T11:53:54.021Z,96178.25
2023-05-02T11:59:03.519Z,96188.03
2023-05-02T12:04:08.256Z,96191.50
2023-05-02T12:09:17.194Z,96183.50
2023-05-02T12:14:27.261Z,96187.25
2023-05-02T12:19:29.089Z,96188.34
2023-05-02T12:24:31.230Z,96180.09
2023-05-02T12:29:47.294Z,96188.25
2023-05-02T12:34:49.217Z,96183.38
2023-05-02T12:39:52.704Z,96187.00
2023-05-02T12:44:55.262Z,96190.69
2023-05-02T12:50:01.489Z,96181.38
2023-05-02T12:55:27.451Z,96170.97
2023-05-02T13:00:34.696Z,96175.47
2023-05-02T13:05:41.208Z,96179.88
2023-05-02T13:10:44.898Z,96184.84
2023-05-02T13:15:47.592Z,96179.13
2023-05-02T13:20:50.064Z,96173.38
2023-05-02T13:25:52.080Z,96179.22
2023-05-02T13:30:54.391Z,96169.22
2023-05-02T13:35:56.791Z,96169.47
2023-05-02T13:40:58.449Z,96161.38
2023-05-02T13:46:00.413Z,96156.09
2023-05-02T13:51:02.188Z,96157.13
2023-05-02T13:56:04.915Z,96156.84
2023-05-02T14:06:09.877Z,96166.75
2023-05-02T14:11:13.866Z,96167.78
2023-05-02T14:16:17.391Z,96166.97
2023-05-02T14:21:18.990Z,96170.59
2023-05-02T14:26:20.646Z,96172.50
2023-05-02T14:31:22.347Z,96170.41
2023-05-02T14:36:24.077Z,96176.91
2023-05-02T14:41:26.824Z,96173.88
2023-05-02T14:46:28.683Z,96186.53
2023-05-02T14:51:31.968Z,96189.72
2023-05-02T14:56:34.829Z,96234.72
2023-05-02T15:01:37.615Z,96236.59
2023-05-02T15:06:40.514Z,96253.63
2023-05-02T15:11:44.001Z,96238.88
2023-05-02T15:16:46.956Z,96238.94
2023-05-02T15:21:49.977Z,96238.41
2023-05-02T15:26:52.083Z,96250.22
2023-05-02T15:31:54.640Z,96253.13
2023-05-02T15:36:57.968Z,96247.72
2023-05-02T15:42:05.162Z,96249.28
2023-05-02T15:47:07.161Z,96252.09
2023-05-02T15:52:09.225Z,96254.78
2023-05-02T15:57:12.725Z,96251.13
2023-05-02T16:02:15.778Z,96266.28
2023-05-02T16:07:17.646Z,96273.34
2023-05-02T16:12:19.253Z,96266.53
2023-05-02T16:17:20.991Z,96273.63
2023-05-02T16:22:22.706Z,96279.13
2023-05-02T16:27:24.857Z,96282.22
2023-05-02T16:32:28.038Z,96274.66
2023-05-02T16:37:30.366Z,96268.09
2023-05-02T16:42:32.281Z,96270.34
2023-05-02T16:47:35.690Z,96268.75
2023-05-02T16:52:38.104Z,96269.88
2023-05-02T16:57:39.905Z,96271.28
2023-05-02T17:02:42.079Z,96271.56
2023-05-02T17:07:43.827Z,96276.47
2023-05-02T17:12:46.611Z,96278.72
2023-05-02T17:17:48.179Z,96280.97
2023-05-02T17:22:49.836Z,96278.56
2023-05-02T17:27:51.503Z,96282.09
2023-05-02T17:32:53.215Z,96290.03
2023-05-02T17:37:55.348Z,96286.84
2023-05-02T17:42:58.812Z,96294.47
2023-05-02T17:48:02.177Z,96305.88
2023-05-02T17:53:07.123Z,96306.22
2023-05-02T17:58:09.004Z,96315.94
2023-05-02T18:03:10.641Z,96328.44
2023-05-02T18:08:12.330Z,96328.31
2023-05-02T18:13:14.919Z,96338.13
2023-05-02T18:18:16.753Z,96340.81
2023-05-02T18:23:18.373Z,96345.47
2023-05-02T18:28:20.097Z,96353.75
2023-05-02T18:33:22.103Z,96361.94
2023-05-02T18:38:23.807Z,96364.66
2023-05-02T18:43:25.497Z,96372.78
2023-05-02T18:48:27.247Z,96372.19
2023-05-02T18:53:29.295Z,96389.75
2023-05-02T18:58:30.940Z,96398.19
2023-05-02T19:03:32.831Z,96404.59
2023-05-02T19:08:34.732Z,96402.78
2023-05-02T19:13:41.387Z,96413.56
2023-05-02T19:18:51.452Z,96413.69
2023-05-02T19:29:08.485Z,96437.44
2023-05-02T19:34:15.149Z,96441.00
2023-05-02T19:39:22.825Z,96452.44
2023-05-02T19:44:30.542Z,96460.69
2023-05-02T19:49:39.535Z,96465.03
2023-05-02T19:54:47.613Z,96469.44
2023-05-02T19:59:54.964Z,96471.88
2023-05-02T20:05:05.994Z,96480.69
2023-05-02T20:10:13.250Z,96478.78
2023-05-02T20:15:20.008Z,96476.16
2023-05-02T20:20:26.048Z,96477.09
2023-05-02T20:25:32.128Z,96476.75
2023-05-02T20:30:41.624Z,96483.47
2023-05-02T20:35:45.646Z,96478.88
2023-05-02T20:40:47.320Z,96487.19
2023-05-02T20:45:50.750Z,96489.97
2023-05-02T20:50:54.771Z,96498.25
2023-05-02T20:55:58.098Z,96498.25
2023-05-02T21:01:01.265Z,96496.69
2023-05-02T21:06:05.633Z,96499.81
2023-05-02T21:11:15.889Z,96505.72
2023-05-02T21:16:19.504Z,96501.41
2023-05-02T21:21:23.339Z,96507.72
2023-05-02T21:26:26.268Z,96518.72
2023-05-02T21:31:29.708Z,96517.16
2023-05-02T21:36:33.654Z,96516.00
2023-05-02T21:41:36.325Z,96512.06
2023-05-02T21:46:39.337Z,96511.31
2023-05-02T21:51:43.351Z,96510.13
2023-05-02T21:56:45.766Z,96515.25
2023-05-02T22:01:47.513Z,96514.06
2023-05-02T22:06:52.018Z,96516.41
2023-05-02T22:11:54.269Z,96513.66
2023-05-02T22:16:58.837Z,96512.50
2023-05-02T22:22:01.735Z,96514.84
2023-05-02T22:27:04.094Z,96510.13
2023-05-02T22:32:06.481Z,96514.84
2023-05-02T22:37:08.424Z,96510.13
2023-05-02T22:42:09.948Z,96507.00
2023-05-02T22:47:12.372Z,96513.66
2023-05-02T22:52:14.507Z,96521.50
2023-05-02T22:57:18.508Z,96512.09
2023-05-02T23:02:21.421Z,96519.16
2023-05-02T23:07:22.987Z,96527.38
2023-05-02T23:12:24.678Z,96525.41
2023-05-02T23:17:26.284Z,96531.69
2023-05-02T23:22:27.830Z,96530.50
2023-05-02T23:27:29.402Z,96532.44
2023-05-02T23:32:31.019Z,96538.69
2023-05-02T23:37:33.923Z,96537.88
2023-05-02T23:42:37.874Z,96536.28
2023-05-02T23:47:39.429Z,96537.84
2023-05-02T23:52:43.013Z,96532.75
2023-05-02T23:57:45.410Z,96533.94
